Wooler, United Kingdom
Current Conditions -  °F | °C
As of 8:50 AM on Monday 20 Oct 2014 (Local Time) from EGQM Reporting Station
Overcast Overcast  
Wind Chill: 54°   Ceiling: 9000
Heat Index: 54°   Visibility: 6mi
Dew Point: 48°   Wind: 13mph
Humidity: 82%   Direction: 240°WSW
Pressure: 29.77"   Gusts: NA
Location:  55.55°N, 2.01°W
Report Text: EGQM 200750Z AUTO 24011KT 9999 OVC090/// 12/09 Q1008
Loading
Personal Weather Stations






























Interactive Weather Map
Tropical Storm Tracking
New forecast layout! Learn more

10-Day Weather Forecast

Advertisements
Track Severe Weather on mobile